Alpine, OR

10:28 AM PDT on August 27, 2014 (GMT -0700)
Monroe | Change Station
CLOSE
Current Station
Personal Weather Station
Location: Monroe, OR
Elevation: 410 ft
Nearby Weather Stations

Elev 410 ft 44.32 °N, 123.31 °W | Updated 6 minutes ago

Clear
Clear
75.3 °F
Feels Like 78 °F
N
3.0
Wind Variable Wind from SW
Gusts 3.0 mph

Today
High -- | Low -- °F
--% Chance of Precip.
Yesterday
High -- | Low -- °F
Precip. -- in
6:30 AM 7:58 PM
Waxing Crescent, 4% visible
Pressure 30.07 in
Visibility 8.0 miles
Clouds Clear
Heat Index 78 °F
Dew Point 57 °F
Humidity 53%
Rainfall 0.00 in
Snow Depth Not available.
UV 5 out of 12
Pollen 3.50 out of 12
Ozone Good
PM2.5 Moderate
Flu Activity Not available.
METAR KCVO 271715Z 00000KT 8SM CLR 24/12 A3007 RMK AO1

More Conditions Fewer Conditions

Pressure 30.07 in
Visibility 8.0 miles
Clouds Clear
Heat Index 78 °F
Dew Point 57 °F
Humidity 53%
Rainfall 0.00 in
Snow Depth Not available.
UV 5 out of 12
Pollen 3.50 out of 12
Ozone Good
PM2.5 Moderate
Flu Activity Not available.
METAR KCVO 271715Z 00000KT 8SM CLR 24/12 A3007 RMK AO1

More Conditions Fewer Conditions

10-Day Weather Forecast

Almanac

Astronomy

Aug. 27, 2014 Rise Set
Actual Time 6:30 AM PDT 7:58 PM PDT
Civil Twilight 6:00 AM PDT 8:28 PM PDT
Nautical Twilight 5:23 AM PDT 9:04 PM PDT
Astronomical Twilight 4:44 AM PDT 9:43 PM PDT
Moon 8:38 AM PDT 8:46 PM PDT
Length of Visible Light 14h 28m
Length of Day
13h 27m
Tomorrow will be 2m 53s shorter.
Waxing Crescent, 4% of the Moon is Illuminated
Today
Waxing Crescent
Sep 2
First Quarter
Sep 8
Full
Sep 15
Last Quarter
Sep 24
New

Today's Extremes

State Highs State Lows

Community

WunderPhotos

Upload Photos

1,747,731 photos uploaded!

Nearby

Air Quality

  Air Quality AQ Index Pollutant
Yesterday Good
OZONE
Yesterday Good
PM2.5
Current Moderate
PM2.5
Current Good
OZONE
Wednesday Moderate
PM2.5

Snow Depth

Station Depth Elevation
Daly Lake 0 in 3600 ft
Santiam Junction 0 in 3750 ft
Hogg Pass 0 in 4760 ft
Irish Taylor 0 in 5500 ft
Salt Creek Falls 0 in 4000 ft

Earthquake Activity

City Distance Mag. Time & Date
No recent earthquake activity has been reported nearby.
Minimum magnitude displayed is 2.5.

Coastal Water Temperatures

Place Temperature
No Stations Reporting

Nearby Weather Stations